DTTR

Details ICAO DTTR (EBM)
Name EL BORMA
Region Tunisia
Timezone Africa/Tunis (UTC+1.0)
Plans Departing 3
Arriving 2
Stats Elevation 827 ft / 252 m (AMSL)
Location 31.703757° 9.254359°
Runways 1
Magnetic Variation 1.948° E
Sunrise 2017-12-14 06:16:07 UTC / 2017-12-14 07:16:07 Local
Sunset 2017-12-14 16:22:00 UTC / 2017-12-14 17:22:00 Local
Advertisement - Login to hide

Runways

ID Width Length Bearing (true) Bearing (mag) Surface Threshold Offset Overrun Length
11 148 ft / 45 m 8,855 ft / 2,699 m 115.11° 113.16° Asphalt 0 ft / 0 m 200 ft / 61 m
29 148 ft / 45 m 8,855 ft / 2,699 m 295.12° 293.17° Asphalt 0 ft / 0 m 200 ft / 61 m

Map

Weather


0- 5 10 15 20 25 30 35+ Temperature / ° C

Clouds and Precipitation
Forecast for 2017-12-14 18:00 UTC. Updated 11 minutes ago

Ground ~20,000 ft ~40,000 ft Winds

METAR

DTTR 141300Z 25003KT 210V300 CAVOK 20/M01 Q1025

TAF

Not found
Warning: Do not use this data for real-world aviation or navigation. No guarantee of current accuracy is given.